Time;durP1;ratioP1;P1;durP2;ratioP2;P2;SDS_P1;SDS_P2;PMS_P1;PMS_P2;Temp;Humidity;BMP_temperature;BMP_pressure;BME280_temperature;BME280_humidity;BME280_pressure;Samples;Min_cycle;Max_cycle;Signal;HPM_P1;HPM_P2
2021/07/12 00:02:06;;;;;;;5.97;5.47;;;20.10;99.90;;;;;;5134383;27;20575;-78
2021/07/12 00:04:32;;;;;;;6.40;5.80;;;20.00;99.90;;;;;;5134074;27;20556;-78
2021/07/12 00:06:58;;;;;;;6.00;5.50;;;20.00;99.90;;;;;;5134233;27;20162;-78
2021/07/12 00:09:23;;;;;;;5.60;5.10;;;20.00;99.90;;;;;;5133579;27;20288;-78
2021/07/12 00:11:49;;;;;;;6.90;5.60;;;20.00;99.90;;;;;;5115908;27;20200;-78
2021/07/12 00:14:15;;;;;;;6.30;5.70;;;20.00;99.90;;;;;;5115690;27;20159;-78
2021/07/12 00:16:41;;;;;;;6.03;5.43;;;20.00;99.90;;;;;;5133979;27;20162;-78
2021/07/12 00:19:07;;;;;;;6.43;5.67;;;20.00;99.90;;;;;;5115187;27;20591;-78
2021/07/12 00:21:33;;;;;;;5.30;4.80;;;20.00;99.90;;;;;;5115688;27;20560;-78
2021/07/12 00:23:59;;;;;;;6.93;6.33;;;20.00;99.90;;;;;;5115436;27;20237;-79
2021/07/12 00:26:25;;;;;;;6.93;5.60;;;20.00;99.90;;;;;;5114839;27;20533;-78
2021/07/12 00:28:50;;;;;;;6.23;5.63;;;20.00;99.90;;;;;;5115170;27;20615;-79
2021/07/12 00:31:16;;;;;;;6.90;5.13;;;20.00;99.90;;;;;;5133491;27;20556;-79
2021/07/12 00:33:42;;;;;;;6.07;5.47;;;20.00;99.90;;;;;;5133964;27;20632;-79
2021/07/12 00:36:08;;;;;;;5.80;5.30;;;20.00;99.90;;;;;;5133694;27;20920;-78
2021/07/12 00:38:35;;;;;;;6.10;4.17;;;20.00;99.90;;;;;;5117181;27;20221;-78
2021/07/12 00:41:02;;;;;;;5.87;5.37;;;20.00;99.90;;;;;;5138321;27;21095;-78
2021/07/12 00:43:29;;;;;;;5.70;5.20;;;20.00;99.90;;;;;;5133580;27;20620;-78
2021/07/12 00:45:56;;;;;;;5.40;4.97;;;20.00;99.90;;;;;;5133451;27;20635;-78
2021/07/12 00:48:22;;;;;;;4.80;4.40;;;20.00;99.90;;;;;;5115189;27;20639;-78
2021/07/12 00:50:51;;;;;;;5.00;4.60;;;20.00;99.90;;;;;;5133162;27;20563;-79
2021/07/12 00:53:17;;;;;;;4.80;4.40;;;20.00;99.90;;;;;;5133310;27;20608;-79
2021/07/12 00:55:48;;;;;;;5.60;5.10;;;20.00;99.90;;;;;;5115549;27;20658;-80
2021/07/12 00:58:26;;;;;;;5.73;5.23;;;20.00;99.90;;;;;;5116155;27;20954;-79
2021/07/12 01:00:59;;;;;;;5.30;4.90;;;19.90;99.90;;;;;;5115485;27;20568;-80
2021/07/12 01:03:26;;;;;;;5.43;4.97;;;19.90;99.90;;;;;;5115601;27;20564;-79
2021/07/12 01:05:53;;;;;;;5.60;5.10;;;19.90;99.90;;;;;;5115362;27;20571;-79
2021/07/12 01:08:21;;;;;;;5.77;5.37;;;19.90;99.90;;;;;;5115283;27;20634;-79
2021/07/12 01:11:18;;;;;;;5.33;4.93;;;19.90;99.90;;;;;;5114734;27;21129;-79
2021/07/12 01:14:18;;;;;;;6.27;4.90;;;19.90;99.90;;;;;;5107319;27;20677;-80
2021/07/12 01:17:09;;;;;;;5.93;5.30;;;19.80;99.90;;;;;;5073525;28;20569;-79
2021/07/12 01:20:06;;;;;;;5.50;4.90;;;19.80;99.90;;;;;;5006486;28;20627;-79
2021/07/12 01:22:51;;;;;;;6.50;5.47;;;19.80;99.90;;;;;;4986991;28;20575;-78
2021/07/12 01:25:47;;;;;;;5.77;5.27;;;19.80;99.90;;;;;;4937814;29;21127;-78
2021/07/12 01:28:31;;;;;;;5.83;5.33;;;19.80;99.90;;;;;;4863500;29;20623;-78
2021/07/12 01:32:29;;;;;;;7.30;5.57;;;19.80;99.90;;;;;;5069461;28;20776;-79
2021/07/12 01:35:25;;;;;;;6.23;5.73;;;19.80;99.90;;;;;;5067843;28;20590;-79
2021/07/12 01:38:15;;;;;;;5.77;5.27;;;19.70;99.90;;;;;;5067584;28;20971;-78
2021/07/12 01:41:16;;;;;;;6.03;4.63;;;19.70;99.90;;;;;;5045302;28;20660;-78
2021/07/12 01:44:07;;;;;;;5.57;5.17;;;19.70;99.90;;;;;;5067388;28;20566;-78
2021/07/12 01:46:48;;;;;;;6.53;5.63;;;19.70;99.90;;;;;;5050340;28;20665;-78
2021/07/12 01:49:27;;;;;;;6.23;5.63;;;19.60;99.90;;;;;;5068232;28;20615;-78
2021/07/12 01:52:37;;;;;;;6.77;6.17;;;19.60;99.90;;;;;;5068592;28;20981;-78
2021/07/12 01:55:08;;;;;;;5.80;5.40;;;19.50;99.90;;;;;;4993385;28;20687;-78
2021/07/12 01:58:06;;;;;;;6.40;5.83;;;19.50;99.90;;;;;;5060501;28;20626;-78
2021/07/12 02:00:33;;;;;;;5.70;5.20;;;19.50;99.90;;;;;;5039443;28;20605;-77
2021/07/12 02:03:03;;;;;;;6.07;5.50;;;19.50;99.90;;;;;;5066960;28;20609;-78
2021/07/12 02:05:39;;;;;;;6.17;5.67;;;19.50;99.90;;;;;;5067111;28;20586;-78
2021/07/12 02:08:12;;;;;;;6.40;5.90;;;19.50;99.90;;;;;;5068126;28;20602;-78
2021/07/12 02:10:43;;;;;;;6.60;6.10;;;19.50;99.90;;;;;;5050392;28;20631;-77
2021/07/12 02:13:13;;;;;;;7.50;6.80;;;19.50;99.90;;;;;;5066852;28;20608;-77
2021/07/12 02:15:54;;;;;;;7.13;6.53;;;19.40;99.90;;;;;;5066914;28;20562;-77
2021/07/12 02:18:33;;;;;;;7.13;6.53;;;19.40;99.90;;;;;;5066580;28;21398;-78
2021/07/12 02:21:18;;;;;;;6.93;6.37;;;19.40;99.90;;;;;;5066687;28;20678;-78
2021/07/12 02:23:48;;;;;;;8.10;6.77;;;19.40;99.90;;;;;;5066695;28;21000;-78
2021/07/12 02:26:18;;;;;;;6.37;5.87;;;19.40;99.90;;;;;;5049919;28;20678;-78
2021/07/12 02:28:46;;;;;;;7.03;6.43;;;19.40;99.90;;;;;;5066344;28;20697;-78
2021/07/12 02:31:14;;;;;;;7.20;6.57;;;19.30;99.90;;;;;;5067353;28;20633;-78
2021/07/12 02:33:42;;;;;;;7.33;6.73;;;19.30;99.90;;;;;;5066343;28;20582;-78
2021/07/12 02:36:09;;;;;;;8.40;7.80;;;19.30;99.90;;;;;;5067730;28;20571;-78
2021/07/12 02:38:39;;;;;;;9.30;8.47;;;19.30;99.90;;;;;;5066875;28;21035;-79
2021/07/12 02:41:06;;;;;;;8.77;8.07;;;19.20;99.90;;;;;;5067498;28;20624;-78
2021/07/12 02:43:35;;;;;;;9.93;9.13;;;19.20;99.90;;;;;;5054155;28;20571;-78
2021/07/12 02:46:04;;;;;;;12.10;8.17;;;19.20;99.90;;;;;;5054688;28;20568;-78
2021/07/12 02:48:29;;;;;;;8.83;8.03;;;19.20;99.90;;;;;;5055244;28;20653;-78
2021/07/12 02:51:00;;;;;;;8.37;7.67;;;19.20;99.90;;;;;;5053561;28;20625;-79
2021/07/12 02:53:33;;;;;;;9.70;8.90;;;19.20;99.90;;;;;;5053021;28;20587;-79
2021/07/12 02:55:59;;;;;;;9.07;8.33;;;19.20;99.90;;;;;;5052731;28;20571;-79
2021/07/12 02:58:25;;;;;;;9.13;8.40;;;19.20;99.90;;;;;;5052858;28;20606;-79
2021/07/12 03:00:51;;;;;;;9.53;8.73;;;19.10;99.90;;;;;;5052477;28;21031;-79
2021/07/12 03:03:17;;;;;;;9.43;8.63;;;19.10;99.90;;;;;;5052896;28;20644;-79
2021/07/12 03:05:44;;;;;;;8.93;7.90;;;19.10;99.90;;;;;;5053868;28;21008;-79
2021/07/12 03:08:30;;;;;;;9.63;8.83;;;19.00;99.90;;;;;;5052596;28;20615;-79
2021/07/12 03:10:59;;;;;;;10.13;9.20;;;19.10;99.90;;;;;;5054170;28;20615;-86
2021/07/12 03:13:38;;;;;;;9.00;8.30;;;19.10;99.90;;;;;;5057632;28;20564;-86
2021/07/12 03:16:07;;;;;;;9.13;8.43;;;19.00;99.90;;;;;;5054040;28;20571;-84
2021/07/12 03:18:44;;;;;;;8.93;8.33;;;19.00;99.90;;;;;;5052759;28;20606;-84
2021/07/12 03:21:11;;;;;;;9.07;8.27;;;19.00;99.90;;;;;;5052700;28;20571;-89
2021/07/12 03:23:44;;;;;;;9.73;9.03;;;19.00;99.90;;;;;;5053388;28;20552;-87
2021/07/12 03:26:13;;;;;;;9.03;8.30;;;19.00;99.90;;;;;;5052710;28;20575;-87
2021/07/12 03:28:41;;;;;;;9.57;8.77;;;19.00;99.90;;;;;;5036173;28;20678;-87
2021/07/12 03:31:09;;;;;;;8.70;7.90;;;18.90;99.90;;;;;;5035644;28;20623;-86
2021/07/12 03:33:39;;;;;;;9.17;8.37;;;18.90;99.90;;;;;;5052857;28;20563;-86
2021/07/12 03:36:07;;;;;;;8.97;8.27;;;18.90;99.90;;;;;;5053686;28;20576;-86
2021/07/12 03:38:33;;;;;;;9.93;9.10;;;18.90;99.90;;;;;;5053883;28;20653;-86
2021/07/12 03:41:01;;;;;;;9.30;8.60;;;18.90;99.90;;;;;;5035685;28;20605;-86
2021/07/12 03:43:28;;;;;;;11.10;10.20;;;18.90;99.90;;;;;;5052838;28;20606;-85
2021/07/12 03:45:57;;;;;;;9.83;9.00;;;18.90;99.90;;;;;;5052248;28;20968;-87
2021/07/12 03:48:40;;;;;;;10.87;9.87;;;18.90;99.90;;;;;;5052216;28;20657;-87
2021/07/12 03:51:17;;;;;;;9.77;8.97;;;18.80;99.90;;;;;;5052680;28;20607;-85
2021/07/12 03:53:45;;;;;;;10.30;9.40;;;18.80;99.90;;;;;;5051626;28;20595;-85
2021/07/12 03:56:11;;;;;;;10.90;9.90;;;18.80;99.90;;;;;;5053409;28;20595;-85
2021/07/12 03:58:37;;;;;;;10.27;9.27;;;18.80;99.90;;;;;;5053463;28;20595;-86
2021/07/12 04:01:03;;;;;;;11.90;10.70;;;18.80;99.90;;;;;;5051889;28;20568;-86
2021/07/12 04:03:29;;;;;;;10.63;9.63;;;18.80;99.90;;;;;;5053379;28;20567;-86
2021/07/12 04:05:55;;;;;;;9.90;9.10;;;18.90;99.90;;;;;;5053272;28;20933;-85
2021/07/12 04:08:21;;;;;;;10.00;9.17;;;18.90;99.90;;;;;;5051807;28;20231;-86
2021/07/12 04:10:48;;;;;;;10.40;9.50;;;18.90;99.90;;;;;;5035318;28;21065;-86
2021/07/12 04:13:14;;;;;;;10.93;10.03;;;18.90;99.90;;;;;;5051712;28;20666;-85
2021/07/12 04:15:41;;;;;;;10.47;9.57;;;18.90;99.90;;;;;;5051786;28;20597;-85
2021/07/12 04:18:06;;;;;;;12.93;11.80;;;19.00;99.90;;;;;;5051503;28;21225;-86
2021/07/12 04:20:33;;;;;;;10.40;9.50;;;19.00;99.90;;;;;;5053152;28;20588;-86
2021/07/12 04:22:59;;;;;;;12.03;10.93;;;19.00;99.90;;;;;;5052040;28;20594;-86
2021/07/12 04:25:26;;;;;;;11.57;10.43;;;19.00;99.90;;;;;;5053648;28;20599;-86
2021/07/12 04:27:52;;;;;;;11.07;10.13;;;19.00;99.90;;;;;;5055514;28;20564;-87
2021/07/12 04:30:18;;;;;;;10.73;9.70;;;19.00;99.90;;;;;;5053355;28;20684;-87
2021/07/12 04:32:44;;;;;;;10.27;9.30;;;19.00;99.90;;;;;;5053314;28;20650;-86
2021/07/12 04:35:12;;;;;;;11.83;10.73;;;19.00;99.90;;;;;;5054504;28;20606;-86
2021/07/12 04:37:38;;;;;;;10.17;9.40;;;19.10;99.90;;;;;;5054959;28;20169;-85
2021/07/12 04:40:06;;;;;;;10.80;9.90;;;19.10;99.90;;;;;;5063399;28;20599;-86
2021/07/12 04:42:32;;;;;;;11.17;10.27;;;19.20;99.90;;;;;;5053900;28;20587;-86
2021/07/12 04:44:57;;;;;;;11.70;9.40;;;19.30;99.90;;;;;;5053569;28;20933;-86
2021/07/12 04:47:24;;;;;;;9.03;8.27;;;19.30;99.90;;;;;;5052612;28;20571;-85
2021/07/12 04:49:50;;;;;;;9.70;8.90;;;19.40;99.90;;;;;;5054974;28;20192;-85
2021/07/12 04:52:15;;;;;;;9.00;8.20;;;19.50;99.90;;;;;;5056418;28;20986;-85
2021/07/12 04:54:42;;;;;;;10.47;9.60;;;19.50;99.90;;;;;;5056059;28;20183;-84
2021/07/12 04:57:08;;;;;;;10.27;8.97;;;19.50;99.90;;;;;;5053661;28;20222;-84
2021/07/12 04:59:39;;;;;;;10.17;9.17;;;19.70;99.90;;;;;;5052237;28;20686;-84
2021/07/12 05:02:09;;;;;;;10.00;8.93;;;19.80;99.90;;;;;;5051360;28;20564;-83
2021/07/12 05:04:37;;;;;;;10.33;9.47;;;19.90;99.90;;;;;;5052688;28;20568;-84
2021/07/12 05:07:04;;;;;;;10.00;9.10;;;19.90;99.90;;;;;;5052578;28;20563;-85
2021/07/12 05:09:29;;;;;;;8.07;7.40;;;20.00;99.90;;;;;;5052070;28;20599;-85
2021/07/12 05:11:56;;;;;;;9.40;8.60;;;20.00;99.90;;;;;;5056550;28;20669;-85
2021/07/12 05:14:24;;;;;;;11.33;8.00;;;20.10;99.90;;;;;;5051885;28;20169;-85
2021/07/12 05:16:50;;;;;;;8.00;7.40;;;20.20;99.90;;;;;;5051970;28;20608;-86
2021/07/12 05:19:16;;;;;;;8.57;7.87;;;20.30;99.90;;;;;;5051449;28;20602;-84
2021/07/12 05:21:42;;;;;;;9.67;8.67;;;20.40;99.90;;;;;;5051974;28;20572;-85
2021/07/12 05:24:08;;;;;;;11.27;9.37;;;20.40;99.90;;;;;;5050418;28;20600;-85
2021/07/12 05:26:34;;;;;;;9.63;8.70;;;20.40;99.90;;;;;;5051963;28;20295;-88
2021/07/12 05:29:00;;;;;;;10.30;9.27;;;20.50;99.90;;;;;;5051577;28;20610;-84
2021/07/12 05:31:26;;;;;;;10.27;9.20;;;20.60;99.90;;;;;;5071623;28;20649;-81
2021/07/12 05:33:52;;;;;;;11.20;10.27;;;20.60;99.90;;;;;;5073365;28;20563;-82
2021/07/12 05:36:18;;;;;;;12.17;11.17;;;20.70;99.90;;;;;;5071797;28;20986;-82
2021/07/12 05:38:44;;;;;;;13.27;12.07;;;20.70;99.90;;;;;;5066138;28;20623;-82
2021/07/12 05:41:10;;;;;;;12.20;10.93;;;20.70;99.90;;;;;;5065020;28;20683;-82
2021/07/12 05:43:36;;;;;;;12.20;11.20;;;20.70;99.90;;;;;;5065839;28;20204;-81
2021/07/12 05:46:04;;;;;;;12.43;11.50;;;20.80;99.90;;;;;;5062294;28;20580;-81
2021/07/12 05:48:29;;;;;;;11.30;10.40;;;20.80;99.90;;;;;;5058761;28;20192;-85
2021/07/12 05:50:55;;;;;;;12.80;11.70;;;20.80;99.90;;;;;;5055371;28;20649;-82
2021/07/12 05:53:22;;;;;;;12.77;11.77;;;20.90;99.90;;;;;;5059419;28;20242;-82
2021/07/12 05:55:48;;;;;;;11.17;10.27;;;21.10;99.90;;;;;;5058982;28;20572;-83
2021/07/12 05:58:13;;;;;;;11.77;10.87;;;21.20;99.90;;;;;;5056770;28;20189;-82
2021/07/12 06:00:40;;;;;;;12.00;11.07;;;21.50;99.90;;;;;;5065632;28;20614;-83
2021/07/12 06:03:06;;;;;;;10.70;9.77;;;21.90;99.90;;;;;;5056791;28;20576;-81
2021/07/12 06:05:31;;;;;;;10.87;9.87;;;22.30;99.90;;;;;;5054067;28;20583;-85
2021/07/12 06:07:57;;;;;;;9.80;9.00;;;22.70;99.90;;;;;;5060471;28;20260;-85
2021/07/12 06:10:24;;;;;;;9.77;8.97;;;23.30;99.90;;;;;;5050208;28;20996;-86
2021/07/12 06:12:50;;;;;;;8.53;7.93;;;23.90;99.90;;;;;;5050999;28;20592;-86
2021/07/12 06:15:15;;;;;;;8.07;7.47;;;24.60;99.90;;;;;;5050790;28;21184;-83
2021/07/12 06:17:41;;;;;;;7.10;6.50;;;25.20;99.90;;;;;;5055640;28;20631;-87
2021/07/12 06:20:09;;;;;;;7.10;6.60;;;25.60;99.90;;;;;;5056670;28;20283;-86
2021/07/12 06:22:38;;;;;;;7.00;6.50;;;26.00;99.90;;;;;;5055892;28;20264;-86
2021/07/12 06:25:42;;;;;;;6.93;6.23;;;26.30;99.90;;;;;;5053818;28;20588;-87
2021/07/12 06:28:09;;;;;;;6.90;6.30;;;26.60;99.90;;;;;;5054195;28;20627;-86
2021/07/12 06:30:35;;;;;;;7.17;6.67;;;26.90;99.90;;;;;;5049781;28;20713;-77
2021/07/12 06:33:02;;;;;;;6.67;6.07;;;27.20;99.90;;;;;;5033126;28;20575;-77
2021/07/12 06:35:27;;;;;;;7.47;6.80;;;27.30;99.90;;;;;;5037746;28;20569;-77
2021/07/12 06:37:53;;;;;;;7.10;6.60;;;27.50;99.90;;;;;;5042464;28;20593;-76
2021/07/12 06:40:19;;;;;;;6.70;5.97;;;27.80;99.90;;;;;;5057623;28;20734;-76
2021/07/12 06:42:45;;;;;;;6.77;5.70;;;27.80;99.90;;;;;;5054443;28;20729;-77
2021/07/12 06:45:11;;;;;;;6.80;6.17;;;27.90;99.90;;;;;;5054098;28;20170;-77
2021/07/12 06:47:37;;;;;;;6.50;6.00;;;28.00;99.90;;;;;;5053317;28;20168;-78
2021/07/12 06:50:05;;;;;;;6.27;5.77;;;28.20;99.90;;;;;;5051527;28;20713;-78
2021/07/12 06:52:30;;;;;;;6.10;5.30;;;28.50;99.90;;;;;;5053956;28;20567;-77
2021/07/12 06:54:56;;;;;;;6.60;6.10;;;28.60;99.90;;;;;;5055657;28;20675;-78
2021/07/12 06:57:23;;;;;;;7.63;7.03;;;28.70;99.90;;;;;;5052606;28;20678;-78
2021/07/12 06:59:50;;;;;;;7.37;6.60;;;28.70;99.90;;;;;;5053809;28;20608;-77
2021/07/12 07:02:16;;;;;;;6.93;5.93;;;28.80;99.90;;;;;;5052643;28;20579;-77
2021/07/12 07:04:44;;;;;;;6.80;5.53;;;29.00;99.90;;;;;;5055863;28;20575;-77
2021/07/12 07:07:11;;;;;;;5.40;5.00;;;29.40;99.90;;;;;;5041265;28;20587;-78
2021/07/12 07:09:37;;;;;;;6.60;6.10;;;29.60;99.90;;;;;;5035446;28;20646;-77
2021/07/12 07:12:03;;;;;;;5.20;4.80;;;29.90;99.90;;;;;;5052680;28;20247;-78
2021/07/12 07:14:39;;;;;;;4.90;4.60;;;30.10;99.90;;;;;;5052812;28;20539;-78
2021/07/12 07:17:05;;;;;;;5.27;4.77;;;30.30;99.90;;;;;;5052219;28;20580;-77
2021/07/12 07:19:31;;;;;;;4.53;4.20;;;30.70;99.90;;;;;;5052276;28;20210;-78
2021/07/12 07:21:58;;;;;;;4.57;4.03;;;31.10;99.90;;;;;;5053680;28;20211;-77
2021/07/12 07:24:42;;;;;;;4.30;3.90;;;31.50;99.90;;;;;;5052378;28;20679;-77
2021/07/12 07:27:08;;;;;;;4.80;4.50;;;32.20;99.90;;;;;;5053543;28;20595;-78
2021/07/12 07:29:34;;;;;;;4.13;3.83;;;32.90;99.90;;;;;;5052825;28;20623;-77
2021/07/12 07:32:00;;;;;;;4.07;3.87;;;33.50;99.90;;;;;;5039744;28;20753;-76
2021/07/12 07:34:26;;;;;;;4.27;3.97;;;34.20;99.90;;;;;;5053628;28;20567;-77
2021/07/12 07:36:56;;;;;;;3.57;3.27;;;34.50;96.90;;;;;;5052216;28;20641;-77
2021/07/12 07:39:23;;;;;;;3.73;3.53;;;34.70;95.30;;;;;;5053126;28;20216;-75
2021/07/12 07:41:49;;;;;;;3.63;3.33;;;34.70;92.30;;;;;;5053223;28;21029;-76
2021/07/12 07:44:14;;;;;;;4.53;4.17;;;34.60;92.10;;;;;;5053490;28;20590;-76
2021/07/12 07:46:40;;;;;;;4.10;3.80;;;34.70;90.20;;;;;;5051566;28;20172;-76
2021/07/12 07:49:07;;;;;;;4.33;3.70;;;34.50;89.00;;;;;;5052756;28;20189;-76
2021/07/12 07:51:35;;;;;;;2.83;2.63;;;34.50;88.20;;;;;;5052999;28;20575;-76
2021/07/12 07:54:01;;;;;;;3.63;3.43;;;34.40;89.50;;;;;;5053122;28;20571;-75
2021/07/12 07:56:27;;;;;;;3.93;3.63;;;34.70;88.60;;;;;;5051641;28;20575;-75
2021/07/12 07:58:52;;;;;;;3.40;3.10;;;34.80;89.10;;;;;;5052404;28;21517;-76
2021/07/12 08:01:19;;;;;;;3.30;3.00;;;35.10;88.50;;;;;;5052070;28;20611;-75
2021/07/12 08:03:45;;;;;;;5.50;3.50;;;35.40;85.30;;;;;;5052670;28;20165;-75
2021/07/12 08:06:11;;;;;;;3.80;3.47;;;35.70;84.50;;;;;;5052812;28;20621;-75
2021/07/12 08:08:37;;;;;;;4.60;3.30;;;35.90;83.10;;;;;;5055033;28;20216;-76
2021/07/12 08:11:04;;;;;;;3.83;3.37;;;36.20;82.10;;;;;;5033424;28;20180;-75
2021/07/12 08:13:30;;;;;;;2.90;2.60;;;36.30;78.90;;;;;;5034547;28;20181;-75
2021/07/12 08:15:55;;;;;;;3.27;2.70;;;36.30;79.30;;;;;;5034350;28;20579;-76
2021/07/12 08:18:22;;;;;;;3.63;3.20;;;36.50;77.40;;;;;;5034702;28;20185;-76
2021/07/12 08:20:48;;;;;;;2.30;2.10;;;36.40;74.60;;;;;;5034072;28;20204;-77
2021/07/12 08:23:14;;;;;;;4.57;2.90;;;36.40;74.40;;;;;;5052367;28;20923;-76
2021/07/12 08:25:41;;;;;;;2.53;2.33;;;36.40;74.50;;;;;;5034313;28;20616;-76
2021/07/12 08:28:07;;;;;;;2.87;2.60;;;36.50;72.40;;;;;;5051168;28;21337;-76
2021/07/12 08:30:33;;;;;;;1.83;1.73;;;36.80;74.00;;;;;;5051655;28;20594;-75
2021/07/12 08:32:59;;;;;;;2.10;1.90;;;37.20;73.40;;;;;;5052550;28;20595;-75
2021/07/12 08:35:25;;;;;;;3.40;2.13;;;37.60;73.10;;;;;;5051871;28;20653;-75
2021/07/12 08:37:51;;;;;;;2.10;1.90;;;38.10;70.40;;;;;;5052336;28;20553;-76
2021/07/12 08:40:21;;;;;;;2.07;1.87;;;38.20;68.60;;;;;;5035881;28;20619;-75
2021/07/12 08:42:50;;;;;;;2.00;1.57;;;38.00;67.70;;;;;;5050684;28;20165;-75
2021/07/12 08:45:16;;;;;;;1.53;1.43;;;38.40;67.60;;;;;;5050974;28;20598;-76
2021/07/12 08:47:42;;;;;;;1.60;1.40;;;38.90;66.20;;;;;;5051717;28;20952;-76
2021/07/12 08:50:09;;;;;;;2.27;1.87;;;38.80;60.90;;;;;;5051885;28;20271;-75
2021/07/12 08:52:34;;;;;;;1.63;1.30;;;38.70;59.60;;;;;;5050361;28;20567;-75
2021/07/12 08:55:01;;;;;;;1.50;1.10;;;38.50;58.90;;;;;;5051962;28;20613;-75
2021/07/12 08:57:26;;;;;;;1.50;1.27;;;38.60;59.20;;;;;;5051600;28;20204;-75
2021/07/12 08:59:55;;;;;;;2.03;1.20;;;38.50;57.20;;;;;;5051366;28;20619;-76
2021/07/12 09:02:23;;;;;;;2.50;1.27;;;38.30;56.30;;;;;;5050487;28;20522;-75
2021/07/12 09:04:51;;;;;;;2.57;1.40;;;38.00;55.90;;;;;;5050152;28;20685;-75
2021/07/12 09:07:28;;;;;;;1.40;1.17;;;37.50;54.70;;;;;;5051432;28;20666;-74
2021/07/12 09:10:06;;;;;;;1.50;1.00;;;37.00;55.30;;;;;;5033736;28;20599;-76
2021/07/12 09:12:49;;;;;;;2.33;1.00;;;36.90;56.10;;;;;;5051605;28;20625;-76
2021/07/12 09:15:16;;;;;;;1.60;1.33;;;36.70;56.20;;;;;;5050536;28;20562;-75
2021/07/12 09:17:48;;;;;;;1.73;1.20;;;36.30;55.40;;;;;;5051254;28;20568;-75
2021/07/12 09:20:30;;;;;;;1.50;1.13;;;36.10;55.60;;;;;;5049920;28;20641;-76
2021/07/12 09:22:57;;;;;;;1.40;1.10;;;35.90;56.30;;;;;;5054893;28;20567;-76
2021/07/12 09:25:28;;;;;;;1.40;1.03;;;35.80;56.30;;;;;;5033170;28;20584;-75
2021/07/12 09:27:56;;;;;;;1.90;1.10;;;35.70;56.60;;;;;;5050042;28;21131;-75
2021/07/12 09:30:22;;;;;;;2.00;0.90;;;35.60;56.90;;;;;;5050766;28;20598;-75
2021/07/12 09:32:52;;;;;;;1.40;1.20;;;35.50;56.60;;;;;;5050090;28;20603;-76
2021/07/12 09:35:20;;;;;;;1.60;1.20;;;35.30;55.60;;;;;;5049799;28;20571;-74
2021/07/12 09:37:58;;;;;;;1.30;1.13;;;34.70;55.40;;;;;;5049999;28;20591;-75
2021/07/12 09:40:26;;;;;;;1.60;1.03;;;34.40;56.40;;;;;;5050574;28;20628;-76
2021/07/12 09:42:52;;;;;;;6.60;1.10;;;34.50;57.30;;;;;;5049963;28;20662;-76
2021/07/12 09:45:21;;;;;;;1.40;1.10;;;34.90;57.70;;;;;;5051102;28;20659;-76
2021/07/12 09:47:49;;;;;;;1.60;1.37;;;35.20;58.00;;;;;;5049469;28;20165;-76
2021/07/12 09:50:20;;;;;;;1.20;0.80;;;35.30;57.10;;;;;;5050898;28;20568;-77
2021/07/12 09:52:58;;;;;;;1.20;0.80;;;35.60;56.80;;;;;;5053204;28;20662;-77
2021/07/12 09:55:24;;;;;;;1.33;0.93;;;35.80;56.20;;;;;;5020679;28;20575;-77
2021/07/12 09:58:19;;;;;;;1.40;0.87;;;36.20;56.60;;;;;;5053647;28;20579;-77
2021/07/12 10:00:47;;;;;;;1.27;1.00;;;36.70;56.00;;;;;;5039081;28;20196;-76
2021/07/12 10:03:15;;;;;;;1.30;0.93;;;37.00;54.90;;;;;;5053831;28;20607;-76
2021/07/12 10:05:44;;;;;;;1.33;1.00;;;37.40;54.80;;;;;;5055267;28;20595;-76
2021/07/12 10:08:11;;;;;;;1.50;0.90;;;37.70;53.00;;;;;;5053684;28;20698;-76
2021/07/12 10:10:37;;;;;;;2.07;0.90;;;38.00;53.40;;;;;;5054577;28;20564;-76
2021/07/12 10:13:03;;;;;;;1.50;1.10;;;38.10;53.10;;;;;;5054841;28;20939;-77
2021/07/12 10:15:28;;;;;;;1.40;1.00;;;38.20;52.80;;;;;;5055094;28;20172;-76
2021/07/12 10:17:57;;;;;;;1.80;0.90;;;38.20;52.50;;;;;;5053854;28;20667;-76
2021/07/12 10:20:23;;;;;;;1.20;0.80;;;38.50;51.80;;;;;;5036884;28;20279;-76
2021/07/12 10:22:50;;;;;;;2.00;0.80;;;38.70;52.30;;;;;;5053834;28;20578;-76
2021/07/12 10:25:18;;;;;;;1.40;0.90;;;38.90;50.80;;;;;;5053580;28;20626;-75
2021/07/12 10:28:05;;;;;;;1.33;0.70;;;38.80;49.50;;;;;;5053338;28;20567;-75
2021/07/12 10:30:37;;;;;;;1.20;0.80;;;38.60;48.80;;;;;;5053950;28;20602;-75
2021/07/12 10:33:11;;;;;;;1.30;0.90;;;38.20;48.40;;;;;;5054554;28;20943;-76
2021/07/12 10:35:52;;;;;;;1.57;1.10;;;38.20;49.00;;;;;;5054818;28;20567;-75
2021/07/12 10:38:43;;;;;;;2.00;1.10;;;38.30;49.70;;;;;;5054471;28;20602;-76
2021/07/12 10:41:28;;;;;;;2.67;1.10;;;38.20;49.10;;;;;;5056120;28;20971;-75
2021/07/12 10:43:58;;;;;;;1.50;0.80;;;38.30;48.90;;;;;;5054372;28;20571;-75
2021/07/12 10:46:26;;;;;;;1.30;0.73;;;38.20;48.70;;;;;;5036401;28;20602;-76
2021/07/12 10:48:53;;;;;;;1.43;0.90;;;37.70;47.60;;;;;;5036061;28;20603;-75
2021/07/12 10:51:20;;;;;;;1.97;0.90;;;37.20;47.90;;;;;;5052933;28;20570;-75
2021/07/12 10:53:59;;;;;;;1.43;1.00;;;36.80;47.90;;;;;;5054018;28;20571;-76
2021/07/12 10:56:40;;;;;;;1.40;0.90;;;36.00;47.80;;;;;;5053013;28;20925;-75
2021/07/12 10:59:07;;;;;;;1.27;0.93;;;35.20;48.20;;;;;;5052045;28;20623;-75
2021/07/12 11:01:39;;;;;;;1.50;0.97;;;34.40;48.00;;;;;;5051820;28;21043;-76
2021/07/12 11:04:45;;;;;;;1.40;1.13;;;33.80;49.00;;;;;;5053236;28;20568;-75
2021/07/12 11:07:14;;;;;;;2.23;1.00;;;33.30;49.90;;;;;;5052443;28;21045;-75
2021/07/12 11:10:03;;;;;;;2.17;1.40;;;32.90;50.40;;;;;;5053458;28;20612;-75
2021/07/12 11:12:38;;;;;;;1.97;1.20;;;32.40;51.40;;;;;;5057903;28;20562;-75
2021/07/12 11:15:13;;;;;;;1.70;1.43;;;32.00;51.60;;;;;;5052513;28;20967;-75
2021/07/12 11:17:48;;;;;;;1.40;0.80;;;31.60;52.20;;;;;;5053698;28;20559;-75
2021/07/12 11:20:15;;;;;;;3.20;1.30;;;31.30;52.40;;;;;;5053337;28;20671;-76
2021/07/12 11:22:54;;;;;;;1.50;0.90;;;31.10;52.80;;;;;;5052135;28;20575;-76
2021/07/12 11:25:40;;;;;;;1.73;1.17;;;30.90;53.50;;;;;;5035668;28;20604;-75
2021/07/12 11:28:11;;;;;;;2.00;1.20;;;30.70;53.90;;;;;;5035415;28;20972;-75
2021/07/12 11:30:37;;;;;;;3.20;1.20;;;30.50;54.80;;;;;;5053395;28;20587;-76
2021/07/12 11:33:03;;;;;;;2.43;1.30;;;30.30;54.60;;;;;;5052170;28;20577;-76
2021/07/12 11:35:29;;;;;;;1.50;1.17;;;30.20;55.00;;;;;;5053553;28;20563;-76
2021/07/12 11:37:59;;;;;;;2.80;1.30;;;30.00;55.40;;;;;;5053116;28;20260;-76
2021/07/12 11:40:25;;;;;;;1.80;1.10;;;29.90;55.40;;;;;;5053178;28;20626;-75
2021/07/12 11:42:51;;;;;;;2.27;0.80;;;29.90;55.40;;;;;;5053122;28;20625;-75
2021/07/12 11:45:19;;;;;;;1.40;0.90;;;29.80;55.40;;;;;;5052997;28;20576;-75
2021/07/12 11:47:55;;;;;;;1.60;0.83;;;29.70;55.70;;;;;;5051658;28;20242;-76
2021/07/12 11:50:26;;;;;;;1.83;0.80;;;29.60;56.40;;;;;;5055913;28;20567;-75
2021/07/12 11:52:54;;;;;;;1.50;1.00;;;29.60;56.40;;;;;;5018728;28;20575;-75
2021/07/12 11:55:22;;;;;;;1.40;0.90;;;29.50;56.40;;;;;;5051585;28;20595;-75
2021/07/12 11:57:51;;;;;;;1.50;0.90;;;29.40;56.50;;;;;;5052572;28;20583;-75
2021/07/12 12:00:24;;;;;;;1.50;0.90;;;29.40;57.10;;;;;;5051121;28;20654;-75
2021/07/12 12:03:02;;;;;;;1.60;1.10;;;29.40;56.80;;;;;;5052968;28;20560;-76
2021/07/12 12:05:31;;;;;;;2.53;0.90;;;29.30;57.10;;;;;;5051391;28;20971;-75
2021/07/12 12:07:59;;;;;;;1.30;0.83;;;29.20;57.10;;;;;;5052746;28;20575;-75
2021/07/12 12:10:38;;;;;;;1.33;0.80;;;29.10;57.20;;;;;;5052490;28;20583;-75
2021/07/12 12:13:19;;;;;;;2.80;0.87;;;29.10;57.10;;;;;;5052781;28;21106;-75
2021/07/12 12:15:50;;;;;;;1.70;0.77;;;29.00;57.10;;;;;;5033896;28;20674;-75
2021/07/12 12:18:29;;;;;;;1.30;0.80;;;29.00;57.00;;;;;;5051307;28;20958;-75
2021/07/12 12:20:58;;;;;;;1.30;0.80;;;28.90;57.40;;;;;;5034394;28;20631;-75
2021/07/12 12:23:26;;;;;;;1.40;0.90;;;28.90;57.60;;;;;;5052363;28;20560;-75
2021/07/12 12:26:02;;;;;;;1.30;1.03;;;28.80;57.70;;;;;;5054689;28;20567;-75
2021/07/12 12:28:50;;;;;;;1.30;0.80;;;28.80;57.70;;;;;;5052587;28;21010;-75
2021/07/12 12:31:26;;;;;;;1.50;0.80;;;28.70;57.90;;;;;;5051925;28;21126;-75
2021/07/12 12:34:17;;;;;;;1.60;0.70;;;28.80;58.30;;;;;;5050630;28;20915;-75
2021/07/12 12:36:43;;;;;;;1.30;0.80;;;28.80;58.30;;;;;;5050859;28;20571;-75
2021/07/12 12:39:10;;;;;;;2.47;0.80;;;28.90;58.90;;;;;;5055487;28;20602;-75
2021/07/12 12:41:52;;;;;;;2.37;0.70;;;28.90;58.90;;;;;;5051884;28;20622;-75
2021/07/12 12:44:21;;;;;;;1.50;0.70;;;28.90;58.90;;;;;;5052331;28;20574;-75
2021/07/12 12:46:50;;;;;;;1.20;0.70;;;28.80;58.50;;;;;;5051169;28;21025;-75
2021/07/12 12:49:32;;;;;;;1.30;0.80;;;28.80;58.60;;;;;;5051832;28;20603;-75
2021/07/12 12:52:12;;;;;;;2.23;1.10;;;28.90;59.10;;;;;;5052092;28;20931;-75
2021/07/12 12:54:43;;;;;;;1.93;0.90;;;28.80;59.00;;;;;;5050846;28;20663;-75
2021/07/12 12:57:10;;;;;;;1.30;0.90;;;28.70;59.20;;;;;;5033969;28;20576;-75
2021/07/12 12:59:40;;;;;;;1.30;0.80;;;28.60;59.40;;;;;;5051594;28;21022;-75
2021/07/12 13:02:10;;;;;;;2.17;1.10;;;28.50;59.90;;;;;;5051699;28;20658;-75
2021/07/12 13:04:44;;;;;;;3.00;1.00;;;28.40;59.90;;;;;;5054681;28;20564;-75